createdAt,value
2024-03-16T00:01:51.518Z,33.78
2024-03-16T00:04:18.722Z,35.78
2024-03-16T00:06:46.126Z,35.28
2024-03-16T00:09:13.353Z,35.88
2024-03-16T00:11:40.649Z,35.75
2024-03-16T00:14:08.089Z,34.10
2024-03-16T00:16:35.382Z,34.83
2024-03-16T00:19:02.952Z,34.30
2024-03-16T00:21:30.232Z,32.92
2024-03-16T00:23:57.406Z,31.23
2024-03-16T00:26:24.586Z,32.92
2024-03-16T00:28:52.431Z,32.35
2024-03-16T00:31:19.763Z,32.40
2024-03-16T00:33:47.026Z,30.33
2024-03-16T00:36:14.291Z,31.15
2024-03-16T00:38:43.250Z,31.52
2024-03-16T00:41:10.436Z,31.55
2024-03-16T00:43:38.155Z,33.28
2024-03-16T00:46:05.427Z,32.00
2024-03-16T00:48:32.665Z,34.15
2024-03-16T00:50:59.933Z,32.83
2024-03-16T00:53:27.071Z,32.63
2024-03-16T00:55:54.238Z,34.25
2024-03-16T00:58:21.555Z,34.45
2024-03-16T01:00:48.761Z,33.45
2024-03-16T01:03:16.368Z,33.75
2024-03-16T01:05:43.559Z,33.88
2024-03-16T01:08:11.132Z,32.63
2024-03-16T01:10:38.655Z,33.13
2024-03-16T01:13:05.981Z,32.85
2024-03-16T01:15:33.914Z,31.52
2024-03-16T01:18:01.148Z,32.45
2024-03-16T01:20:29.218Z,29.60
2024-03-16T01:22:56.501Z,30.08
2024-03-16T01:25:23.772Z,30.67
2024-03-16T01:27:51.350Z,31.10
2024-03-16T01:30:18.545Z,32.15
2024-03-16T01:32:45.691Z,31.08
2024-03-16T01:35:13.576Z,29.98
2024-03-16T01:37:40.779Z,31.77
2024-03-16T01:40:08.345Z,29.70
2024-03-16T01:42:35.697Z,29.95
2024-03-16T01:45:23.208Z,31.05
2024-03-16T01:47:50.386Z,33.35
2024-03-16T01:50:20.957Z,31.20
2024-03-16T01:52:48.378Z,32.13
2024-03-16T01:55:16.111Z,31.98
2024-03-16T01:57:43.371Z,31.30
2024-03-16T02:00:12.884Z,31.77
2024-03-16T02:02:40.862Z,30.58
2024-03-16T02:05:09.284Z,31.20
2024-03-16T02:07:38.255Z,32.28
2024-03-16T02:10:10.109Z,32.92
2024-03-16T02:12:37.748Z,32.95
2024-03-16T02:15:05.157Z,32.65
2024-03-16T02:17:32.424Z,33.03
2024-03-16T02:19:59.598Z,32.22
2024-03-16T02:22:26.771Z,31.70
2024-03-16T02:24:54.194Z,29.52
2024-03-16T02:27:21.695Z,31.15
2024-03-16T02:29:49.288Z,29.58
2024-03-16T02:32:16.528Z,30.30
2024-03-16T02:34:45.092Z,29.88
2024-03-16T02:37:12.302Z,30.00
2024-03-16T02:39:39.562Z,27.70
2024-03-16T02:42:06.992Z,29.45
2024-03-16T02:44:34.235Z,27.85
2024-03-16T02:47:01.568Z,25.80
2024-03-16T02:49:29.006Z,25.67
2024-03-16T02:51:56.463Z,25.42
2024-03-16T02:54:24.855Z,24.45
2024-03-16T02:56:52.821Z,23.35
2024-03-16T02:59:20.575Z,23.50
2024-03-16T03:01:47.960Z,23.35
2024-03-16T03:04:15.970Z,24.67
2024-03-16T03:06:44.219Z,25.00
2024-03-16T03:09:11.729Z,25.55
2024-03-16T03:11:39.421Z,25.05
2024-03-16T03:14:09.879Z,25.50
2024-03-16T03:16:37.089Z,25.95
2024-03-16T03:19:04.342Z,25.13
2024-03-16T03:21:32.802Z,26.08
2024-03-16T03:24:01.056Z,27.63
2024-03-16T03:26:30.576Z,26.83
2024-03-16T03:28:58.793Z,27.65
2024-03-16T03:31:26.295Z,29.13
2024-03-16T03:33:53.868Z,29.05
2024-03-16T03:36:21.080Z,29.90
2024-03-16T03:38:49.193Z,30.35
2024-03-16T03:41:16.460Z,28.30
2024-03-16T03:43:48.423Z,27.80
2024-03-16T03:46:41.370Z,32.35
2024-03-16T03:49:27.110Z,31.45
2024-03-16T03:51:55.902Z,29.75
2024-03-16T03:54:23.212Z,30.42
2024-03-16T03:56:50.464Z,28.73
2024-03-16T03:59:17.654Z,27.38
2024-03-16T04:01:44.875Z,27.15
2024-03-16T04:04:12.118Z,28.10
2024-03-16T04:06:39.465Z,27.17
2024-03-16T04:09:06.630Z,26.42
2024-03-16T04:11:33.928Z,26.15
2024-03-16T04:14:01.322Z,27.23
2024-03-16T04:16:28.690Z,26.73
2024-03-16T04:18:55.862Z,25.40
2024-03-16T04:21:24.078Z,25.35
2024-03-16T04:23:51.273Z,23.30
2024-03-16T04:26:18.969Z,24.70
2024-03-16T04:28:46.161Z,24.15
2024-03-16T04:31:13.387Z,23.88
2024-03-16T04:33:40.554Z,24.13
2024-03-16T04:36:09.006Z,23.75
2024-03-16T04:38:36.557Z,24.13
2024-03-16T04:41:03.778Z,25.17
2024-03-16T04:43:31.450Z,25.50
2024-03-16T04:45:58.611Z,25.75
2024-03-16T04:48:25.870Z,25.33
2024-03-16T04:50:53.073Z,24.73
2024-03-16T04:53:20.220Z,25.35
2024-03-16T04:55:47.355Z,25.13
2024-03-16T04:58:14.646Z,24.45
2024-03-16T05:00:41.907Z,27.08
2024-03-16T05:03:10.949Z,26.85
2024-03-16T05:05:38.181Z,29.92
2024-03-16T05:08:05.518Z,26.63
2024-03-16T05:10:32.690Z,26.77
2024-03-16T05:12:59.882Z,26.52
2024-03-16T05:15:27.495Z,28.52
2024-03-16T05:17:54.744Z,26.55
2024-03-16T05:20:22.889Z,27.85
2024-03-16T05:22:50.167Z,26.23
2024-03-16T05:25:17.489Z,27.85
2024-03-16T05:27:44.981Z,27.55
2024-03-16T05:30:12.777Z,27.27
2024-03-16T05:32:40.081Z,26.50
2024-03-16T05:35:09.792Z,28.58
2024-03-16T05:37:37.259Z,26.90
2024-03-16T05:40:05.129Z,27.42
2024-03-16T05:42:34.600Z,25.75
2024-03-16T05:45:01.876Z,29.77
2024-03-16T05:47:29.070Z,27.65
2024-03-16T05:49:56.523Z,28.75
2024-03-16T05:52:23.808Z,31.88
2024-03-16T05:54:50.965Z,31.05
2024-03-16T05:57:18.214Z,28.88
2024-03-16T05:59:45.337Z,28.27
2024-03-16T06:02:12.502Z,28.73
2024-03-16T06:04:39.868Z,23.65
2024-03-16T06:07:07.140Z,23.73
2024-03-16T06:09:34.584Z,23.70
2024-03-16T06:12:02.304Z,26.73
2024-03-16T06:14:29.860Z,27.45
2024-03-16T06:16:58.095Z,23.27
2024-03-16T06:19:25.301Z,21.15
2024-03-16T06:21:52.485Z,20.92
2024-03-16T06:24:20.465Z,20.48
2024-03-16T06:26:55.623Z,20.08
2024-03-16T06:29:27.150Z,19.50
2024-03-16T06:32:06.307Z,17.80
2024-03-16T06:34:36.932Z,18.23
2024-03-16T06:37:05.235Z,15.93
2024-03-16T06:39:32.730Z,17.90
2024-03-16T06:41:59.951Z,17.70
2024-03-16T06:44:27.254Z,16.58
2024-03-16T06:46:54.756Z,15.90
2024-03-16T06:49:21.976Z,15.02
2024-03-16T06:51:49.207Z,15.13
2024-03-16T06:54:16.690Z,15.18
2024-03-16T06:56:43.827Z,13.98
2024-03-16T06:59:10.971Z,13.95
2024-03-16T07:01:39.239Z,13.75
2024-03-16T07:04:07.118Z,14.23
2024-03-16T07:06:34.352Z,14.48
2024-03-16T07:09:04.377Z,14.32
2024-03-16T07:11:31.669Z,13.40
2024-03-16T07:13:59.127Z,12.95
2024-03-16T07:16:26.729Z,11.70
2024-03-16T07:18:53.965Z,12.82
2024-03-16T07:21:25.029Z,12.18
2024-03-16T07:23:54.347Z,11.85
2024-03-16T07:26:21.517Z,12.15
2024-03-16T07:28:48.742Z,11.50
2024-03-16T07:31:17.073Z,11.25
2024-03-16T07:33:46.150Z,11.63
2024-03-16T07:36:13.800Z,12.45
2024-03-16T07:38:40.980Z,10.93
2024-03-16T07:41:09.886Z,10.95
2024-03-16T07:43:37.033Z,10.52
2024-03-16T07:46:05.592Z,9.73
2024-03-16T07:48:32.872Z,9.57
2024-03-16T07:51:05.441Z,13.23
2024-03-16T07:53:32.710Z,12.10
2024-03-16T07:55:59.868Z,10.40
2024-03-16T07:58:27.877Z,9.60
2024-03-16T08:00:55.175Z,9.80
2024-03-16T08:03:22.346Z,9.48
2024-03-16T08:05:49.589Z,9.82
2024-03-16T08:08:16.783Z,8.88
2024-03-16T08:10:43.985Z,8.68
2024-03-16T08:13:11.221Z,8.02
2024-03-16T08:15:38.489Z,9.68
2024-03-16T08:18:05.883Z,8.48
2024-03-16T08:20:33.431Z,8.93
2024-03-16T08:23:00.696Z,9.65
2024-03-16T08:25:31.218Z,9.25
2024-03-16T08:27:58.873Z,8.77
2024-03-16T08:30:29.418Z,9.38
2024-03-16T08:32:57.404Z,9.45
2024-03-16T08:35:24.646Z,11.82
2024-03-16T08:37:51.859Z,9.82
2024-03-16T08:40:19.667Z,9.55
2024-03-16T08:42:49.937Z,9.65
2024-03-16T08:45:20.045Z,10.43
2024-03-16T08:47:47.352Z,10.48
2024-03-16T08:50:14.629Z,10.43
2024-03-16T08:52:42.972Z,12.23
2024-03-16T08:55:14.550Z,11.80
2024-03-16T08:57:43.003Z,11.88
2024-03-16T09:00:15.050Z,12.88
2024-03-16T09:02:42.511Z,15.77
2024-03-16T09:05:09.837Z,16.17
2024-03-16T09:07:43.214Z,13.15
2024-03-16T09:10:14.006Z,11.43
2024-03-16T09:12:41.447Z,11.95
2024-03-16T09:15:12.531Z,13.65
2024-03-16T09:17:39.965Z,13.40
2024-03-16T09:20:11.496Z,13.27
2024-03-16T09:22:39.179Z,11.23
2024-03-16T09:25:07.520Z,11.80
2024-03-16T09:27:35.480Z,11.93
2024-03-16T09:30:06.181Z,11.35
2024-03-16T09:32:33.767Z,11.73
2024-03-16T09:35:01.053Z,13.63
2024-03-16T09:37:28.233Z,11.90
2024-03-16T09:39:55.464Z,13.73
2024-03-16T09:42:24.115Z,14.32
